sensor_id;sensor_type;location;lat;lon;timestamp;pressure;altitude;pressure_sealevel;temperature;humidity
72558;BME280;60583;50.094;8.748;2023-06-19T00:01:43;99849.63;;;25.17;44.29
72558;BME280;60583;50.094;8.748;2023-06-19T00:04:10;99843.47;;;25.12;44.48
72558;BME280;60583;50.094;8.748;2023-06-19T00:06:36;99849.22;;;25.10;44.09
72558;BME280;60583;50.094;8.748;2023-06-19T00:09:01;99848.31;;;25.15;43.81
72558;BME280;60583;50.094;8.748;2023-06-19T00:11:26;99848.19;;;25.20;43.81
72558;BME280;60583;50.094;8.748;2023-06-19T00:13:52;99842.09;;;25.23;43.87
72558;BME280;60583;50.094;8.748;2023-06-19T00:16:18;99840.19;;;25.23;44.63
72558;BME280;60583;50.094;8.748;2023-06-19T00:18:45;99839.59;;;25.13;44.66
72558;BME280;60583;50.094;8.748;2023-06-19T00:21:10;99848.00;;;25.16;45.04
72558;BME280;60583;50.094;8.748;2023-06-19T00:23:36;99837.50;;;25.10;45.32
72558;BME280;60583;50.094;8.748;2023-06-19T00:26:01;99844.06;;;25.09;44.87
72558;BME280;60583;50.094;8.748;2023-06-19T00:28:27;99822.16;;;25.00;44.94
72558;BME280;60583;50.094;8.748;2023-06-19T00:30:53;99829.22;;;25.01;45.22
72558;BME280;60583;50.094;8.748;2023-06-19T00:33:18;99841.84;;;25.11;45.64
72558;BME280;60583;50.094;8.748;2023-06-19T00:35:44;99809.38;;;24.87;46.13
72558;BME280;60583;50.094;8.748;2023-06-19T00:38:09;99829.22;;;25.01;45.98
72558;BME280;60583;50.094;8.748;2023-06-19T00:40:35;99829.47;;;24.91;45.42
72558;BME280;60583;50.094;8.748;2023-06-19T00:43:01;99810.28;;;24.69;44.85
72558;BME280;60583;50.094;8.748;2023-06-19T00:45:27;99828.44;;;24.60;45.06
72558;BME280;60583;50.094;8.748;2023-06-19T00:47:53;99833.50;;;24.53;45.66
72558;BME280;60583;50.094;8.748;2023-06-19T00:50:20;99806.16;;;24.44;45.16
72558;BME280;60583;50.094;8.748;2023-06-19T00:52:45;99818.97;;;24.57;45.03
72558;BME280;60583;50.094;8.748;2023-06-19T00:55:11;99798.66;;;24.50;44.98
72558;BME280;60583;50.094;8.748;2023-06-19T00:57:38;99815.53;;;24.65;44.62
72558;BME280;60583;50.094;8.748;2023-06-19T01:00:05;99811.91;;;24.56;44.55
72558;BME280;60583;50.094;8.748;2023-06-19T01:02:32;99807.56;;;24.55;44.99
72558;BME280;60583;50.094;8.748;2023-06-19T01:04:57;99816.53;;;24.56;45.34
72558;BME280;60583;50.094;8.748;2023-06-19T01:07:30;99795.75;;;24.33;45.72
72558;BME280;60583;50.094;8.748;2023-06-19T01:10:02;99812.13;;;24.46;45.75
72558;BME280;60583;50.094;8.748;2023-06-19T01:12:36;99805.25;;;24.35;45.69
72558;BME280;60583;50.094;8.748;2023-06-19T01:15:04;99789.91;;;24.26;45.38
72558;BME280;60583;50.094;8.748;2023-06-19T01:17:30;99803.63;;;24.21;45.13
72558;BME280;60583;50.094;8.748;2023-06-19T01:19:57;99815.72;;;24.15;46.00
72558;BME280;60583;50.094;8.748;2023-06-19T01:22:31;99809.03;;;24.07;46.18
72558;BME280;60583;50.094;8.748;2023-06-19T01:24:57;99815.53;;;24.11;46.22
72558;BME280;60583;50.094;8.748;2023-06-19T01:27:24;99792.59;;;23.98;45.90
72558;BME280;60583;50.094;8.748;2023-06-19T01:29:51;99784.81;;;24.05;46.08
72558;BME280;60583;50.094;8.748;2023-06-19T01:32:40;99807.88;;;24.27;45.93
72558;BME280;60583;50.094;8.748;2023-06-19T01:35:08;99805.25;;;24.22;46.07
72558;BME280;60583;50.094;8.748;2023-06-19T01:37:36;99838.88;;;24.31;46.83
72558;BME280;60583;50.094;8.748;2023-06-19T01:40:05;99831.69;;;24.07;47.99
72558;BME280;60583;50.094;8.748;2023-06-19T01:42:35;99843.63;;;24.12;48.01
72558;BME280;60583;50.094;8.748;2023-06-19T01:45:02;99843.28;;;24.13;48.19
72558;BME280;60583;50.094;8.748;2023-06-19T01:47:28;99839.75;;;24.13;48.37
72558;BME280;60583;50.094;8.748;2023-06-19T01:49:53;99839.66;;;24.18;48.03
72558;BME280;60583;50.094;8.748;2023-06-19T01:52:19;99830.59;;;24.08;48.30
72558;BME280;60583;50.094;8.748;2023-06-19T01:54:44;99826.59;;;24.01;48.04
72558;BME280;60583;50.094;8.748;2023-06-19T01:57:10;99835.88;;;24.00;48.29
72558;BME280;60583;50.094;8.748;2023-06-19T01:59:36;99852.63;;;23.93;47.78
72558;BME280;60583;50.094;8.748;2023-06-19T02:02:01;99846.94;;;23.90;47.64
72558;BME280;60583;50.094;8.748;2023-06-19T02:04:29;99827.88;;;23.76;48.03
72558;BME280;60583;50.094;8.748;2023-06-19T02:06:54;99845.31;;;23.75;48.34
72558;BME280;60583;50.094;8.748;2023-06-19T02:09:20;99838.53;;;23.73;48.44
72558;BME280;60583;50.094;8.748;2023-06-19T02:11:45;99853.78;;;23.74;48.84
72558;BME280;60583;50.094;8.748;2023-06-19T02:14:11;99856.38;;;23.65;49.15
72558;BME280;60583;50.094;8.748;2023-06-19T02:16:36;99835.34;;;23.52;49.44
72558;BME280;60583;50.094;8.748;2023-06-19T02:19:02;99857.63;;;23.35;50.50
72558;BME280;60583;50.094;8.748;2023-06-19T02:21:27;99858.28;;;23.09;51.50
72558;BME280;60583;50.094;8.748;2023-06-19T02:23:54;99848.16;;;22.96;51.38
72558;BME280;60583;50.094;8.748;2023-06-19T02:26:19;99855.88;;;23.07;51.62
72558;BME280;60583;50.094;8.748;2023-06-19T02:28:45;99853.66;;;22.91;52.41
72558;BME280;60583;50.094;8.748;2023-06-19T02:31:10;99850.59;;;22.73;52.47
72558;BME280;60583;50.094;8.748;2023-06-19T02:33:35;99878.16;;;22.67;53.25
72558;BME280;60583;50.094;8.748;2023-06-19T02:36:01;99854.28;;;22.11;54.40
72558;BME280;60583;50.094;8.748;2023-06-19T02:38:27;99882.56;;;22.34;54.22
72558;BME280;60583;50.094;8.748;2023-06-19T02:40:55;99882.53;;;22.39;53.94
72558;BME280;60583;50.094;8.748;2023-06-19T02:43:20;99886.72;;;22.27;54.23
72558;BME280;60583;50.094;8.748;2023-06-19T02:45:45;99894.25;;;22.06;55.26
72558;BME280;60583;50.094;8.748;2023-06-19T02:48:11;99900.41;;;22.16;55.16
72558;BME280;60583;50.094;8.748;2023-06-19T02:50:36;99895.44;;;22.23;55.11
72558;BME280;60583;50.094;8.748;2023-06-19T02:53:01;99906.50;;;22.32;55.32
72558;BME280;60583;50.094;8.748;2023-06-19T02:55:27;99907.91;;;22.30;56.05
72558;BME280;60583;50.094;8.748;2023-06-19T02:57:52;99920.16;;;22.27;55.87
72558;BME280;60583;50.094;8.748;2023-06-19T03:00:18;99922.88;;;22.27;56.06
72558;BME280;60583;50.094;8.748;2023-06-19T03:02:44;99920.63;;;22.34;56.11
72558;BME280;60583;50.094;8.748;2023-06-19T03:05:12;99912.97;;;22.36;56.24
72558;BME280;60583;50.094;8.748;2023-06-19T03:07:39;99907.59;;;22.31;56.48
72558;BME280;60583;50.094;8.748;2023-06-19T03:10:05;99919.75;;;22.39;56.33
72558;BME280;60583;50.094;8.748;2023-06-19T03:12:31;99918.38;;;22.41;56.42
72558;BME280;60583;50.094;8.748;2023-06-19T03:14:56;99924.88;;;22.45;56.16
72558;BME280;60583;50.094;8.748;2023-06-19T03:17:21;99924.97;;;22.35;56.07
72558;BME280;60583;50.094;8.748;2023-06-19T03:19:47;99937.16;;;22.09;56.49
72558;BME280;60583;50.094;8.748;2023-06-19T03:22:12;99945.25;;;22.14;56.66
72558;BME280;60583;50.094;8.748;2023-06-19T03:24:37;99934.41;;;22.14;56.20
72558;BME280;60583;50.094;8.748;2023-06-19T03:27:03;99955.09;;;22.10;56.60
72558;BME280;60583;50.094;8.748;2023-06-19T03:29:29;99964.56;;;22.12;56.70
72558;BME280;60583;50.094;8.748;2023-06-19T03:31:54;99962.28;;;21.91;56.70
72558;BME280;60583;50.094;8.748;2023-06-19T03:34:19;99970.56;;;22.09;56.29
72558;BME280;60583;50.094;8.748;2023-06-19T03:36:45;99960.66;;;22.23;55.80
72558;BME280;60583;50.094;8.748;2023-06-19T03:39:13;99957.66;;;22.25;55.55
72558;BME280;60583;50.094;8.748;2023-06-19T03:41:39;99971.00;;;22.21;55.41
72558;BME280;60583;50.094;8.748;2023-06-19T03:44:04;99993.50;;;22.27;55.44
72558;BME280;60583;50.094;8.748;2023-06-19T03:46:30;99984.88;;;22.20;55.12
72558;BME280;60583;50.094;8.748;2023-06-19T03:48:55;99992.44;;;22.23;55.31
72558;BME280;60583;50.094;8.748;2023-06-19T03:51:20;99989.72;;;22.23;55.10
72558;BME280;60583;50.094;8.748;2023-06-19T03:53:46;99992.94;;;22.30;55.09
72558;BME280;60583;50.094;8.748;2023-06-19T03:56:11;99980.44;;;22.29;55.25
72558;BME280;60583;50.094;8.748;2023-06-19T03:58:37;99959.63;;;22.19;55.09
72558;BME280;60583;50.094;8.748;2023-06-19T04:01:02;99995.63;;;22.35;55.23
72558;BME280;60583;50.094;8.748;2023-06-19T04:03:28;99999.47;;;22.29;55.45
72558;BME280;60583;50.094;8.748;2023-06-19T04:05:54;99993.50;;;22.27;55.73
72558;BME280;60583;50.094;8.748;2023-06-19T04:08:19;100012.78;;;22.25;55.83
72558;BME280;60583;50.094;8.748;2023-06-19T04:10:44;100004.41;;;22.22;56.36
72558;BME280;60583;50.094;8.748;2023-06-19T04:13:10;100015.84;;;22.19;56.42
72558;BME280;60583;50.094;8.748;2023-06-19T04:15:35;100030.44;;;22.28;56.45
72558;BME280;60583;50.094;8.748;2023-06-19T04:18:02;100022.53;;;22.32;56.47
72558;BME280;60583;50.094;8.748;2023-06-19T04:20:27;100023.63;;;22.31;57.01
72558;BME280;60583;50.094;8.748;2023-06-19T04:22:52;100021.50;;;22.28;56.82
72558;BME280;60583;50.094;8.748;2023-06-19T04:25:18;100041.25;;;22.33;57.39
72558;BME280;60583;50.094;8.748;2023-06-19T04:27:43;100037.41;;;22.39;57.22
72558;BME280;60583;50.094;8.748;2023-06-19T04:30:11;100028.72;;;22.42;56.97
72558;BME280;60583;50.094;8.748;2023-06-19T04:32:36;100043.63;;;22.45;57.26
72558;BME280;60583;50.094;8.748;2023-06-19T04:35:14;100011.28;;;22.14;57.58
72558;BME280;60583;50.094;8.748;2023-06-19T04:37:39;100046.94;;;22.37;59.35
72558;BME280;60583;50.094;8.748;2023-06-19T04:40:05;100059.75;;;22.31;60.46
72558;BME280;60583;50.094;8.748;2023-06-19T04:42:33;100054.63;;;22.30;60.74
72558;BME280;60583;50.094;8.748;2023-06-19T04:44:58;100062.28;;;22.22;61.14
72558;BME280;60583;50.094;8.748;2023-06-19T04:47:24;100052.31;;;22.08;61.42
72558;BME280;60583;50.094;8.748;2023-06-19T04:49:50;100040.78;;;21.92;61.61
72558;BME280;60583;50.094;8.748;2023-06-19T04:52:15;100082.78;;;22.05;61.84
72558;BME280;60583;50.094;8.748;2023-06-19T04:54:40;100074.09;;;22.03;61.93
72558;BME280;60583;50.094;8.748;2023-06-19T04:57:06;100076.31;;;21.96;62.45
72558;BME280;60583;50.094;8.748;2023-06-19T04:59:32;100091.53;;;21.97;62.62
72558;BME280;60583;50.094;8.748;2023-06-19T05:01:57;100083.56;;;22.05;62.19
72558;BME280;60583;50.094;8.748;2023-06-19T05:04:23;100072.72;;;22.05;61.71
72558;BME280;60583;50.094;8.748;2023-06-19T05:06:49;100080.00;;;22.15;61.97
72558;BME280;60583;50.094;8.748;2023-06-19T05:09:14;100086.00;;;22.12;62.56
72558;BME280;60583;50.094;8.748;2023-06-19T05:11:40;100075.19;;;22.02;62.41
72558;BME280;60583;50.094;8.748;2023-06-19T05:14:05;100087.91;;;22.11;62.52
72558;BME280;60583;50.094;8.748;2023-06-19T05:16:31;100065.34;;;22.11;62.34
72558;BME280;60583;50.094;8.748;2023-06-19T05:18:56;100077.34;;;22.05;62.66
72558;BME280;60583;50.094;8.748;2023-06-19T05:21:22;100068.88;;;22.11;62.01
72558;BME280;60583;50.094;8.748;2023-06-19T05:23:47;100081.56;;;22.21;62.37
72558;BME280;60583;50.094;8.748;2023-06-19T05:26:16;100060.59;;;22.32;61.77
72558;BME280;60583;50.094;8.748;2023-06-19T05:28:41;100080.31;;;22.47;61.43
72558;BME280;60583;50.094;8.748;2023-06-19T05:31:07;100080.53;;;22.51;61.35
72558;BME280;60583;50.094;8.748;2023-06-19T05:33:32;100077.59;;;22.47;61.31
72558;BME280;60583;50.094;8.748;2023-06-19T05:35:58;100065.47;;;22.35;60.89
72558;BME280;60583;50.094;8.748;2023-06-19T05:38:23;100080.34;;;22.42;60.63
72558;BME280;60583;50.094;8.748;2023-06-19T05:40:51;100075.44;;;22.44;60.82
72558;BME280;60583;50.094;8.748;2023-06-19T05:43:17;100084.09;;;22.46;60.88
72558;BME280;60583;50.094;8.748;2023-06-19T05:45:44;100074.91;;;22.42;60.45
72558;BME280;60583;50.094;8.748;2023-06-19T05:48:09;100073.72;;;22.53;60.87
72558;BME280;60583;50.094;8.748;2023-06-19T05:50:34;100072.56;;;22.64;60.41
72558;BME280;60583;50.094;8.748;2023-06-19T05:53:00;100081.69;;;22.78;59.89
72558;BME280;60583;50.094;8.748;2023-06-19T05:55:25;100079.50;;;22.80;59.73
72558;BME280;60583;50.094;8.748;2023-06-19T05:57:53;100056.47;;;22.73;59.38
72558;BME280;60583;50.094;8.748;2023-06-19T06:00:18;100082.41;;;22.89;59.40
72558;BME280;60583;50.094;8.748;2023-06-19T06:02:44;100060.88;;;22.93;59.35
72558;BME280;60583;50.094;8.748;2023-06-19T06:05:10;100073.88;;;23.01;59.37
72558;BME280;60583;50.094;8.748;2023-06-19T06:07:35;100073.97;;;23.14;59.35
72558;BME280;60583;50.094;8.748;2023-06-19T06:10:01;100079.09;;;23.21;59.47
72558;BME280;60583;50.094;8.748;2023-06-19T06:12:26;100073.22;;;23.32;58.87
72558;BME280;60583;50.094;8.748;2023-06-19T06:14:52;100077.66;;;23.52;58.39
72558;BME280;60583;50.094;8.748;2023-06-19T06:17:17;100083.84;;;23.58;58.16
72558;BME280;60583;50.094;8.748;2023-06-19T06:19:43;100089.97;;;23.68;58.06
72558;BME280;60583;50.094;8.748;2023-06-19T06:22:08;100110.38;;;23.71;58.24
72558;BME280;60583;50.094;8.748;2023-06-19T06:24:34;100077.19;;;23.45;58.41
72558;BME280;60583;50.094;8.748;2023-06-19T06:26:59;100100.81;;;23.73;58.39
72558;BME280;60583;50.094;8.748;2023-06-19T06:29:24;100099.28;;;23.86;57.70
72558;BME280;60583;50.094;8.748;2023-06-19T06:31:50;100108.72;;;23.93;57.60
72558;BME280;60583;50.094;8.748;2023-06-19T06:34:18;100105.41;;;23.96;57.30
72558;BME280;60583;50.094;8.748;2023-06-19T06:36:47;100106.75;;;23.75;57.97
72558;BME280;60583;50.094;8.748;2023-06-19T06:39:13;100109.19;;;23.77;58.17
72558;BME280;60583;50.094;8.748;2023-06-19T06:41:38;100102.34;;;23.79;58.17
72558;BME280;60583;50.094;8.748;2023-06-19T06:44:05;100099.22;;;23.91;58.16
72558;BME280;60583;50.094;8.748;2023-06-19T06:46:30;100102.78;;;24.10;58.07
72558;BME280;60583;50.094;8.748;2023-06-19T06:48:56;100109.97;;;24.20;58.01
72558;BME280;60583;50.094;8.748;2023-06-19T06:51:21;100115.53;;;24.33;57.35
72558;BME280;60583;50.094;8.748;2023-06-19T06:53:53;100117.34;;;24.38;56.58
72558;BME280;60583;50.094;8.748;2023-06-19T06:56:18;100098.78;;;24.40;56.53
72558;BME280;60583;50.094;8.748;2023-06-19T06:58:44;100119.91;;;24.48;56.13
72558;BME280;60583;50.094;8.748;2023-06-19T07:01:12;100105.78;;;24.46;56.22
72558;BME280;60583;50.094;8.748;2023-06-19T07:03:37;100104.59;;;24.52;56.23
72558;BME280;60583;50.094;8.748;2023-06-19T07:06:02;100113.53;;;24.71;55.27
72558;BME280;60583;50.094;8.748;2023-06-19T07:08:28;100120.56;;;24.77;55.08
72558;BME280;60583;50.094;8.748;2023-06-19T07:10:53;100112.84;;;24.98;54.42
72558;BME280;60583;50.094;8.748;2023-06-19T07:13:19;100123.38;;;25.18;54.56
72558;BME280;60583;50.094;8.748;2023-06-19T07:15:44;100108.53;;;25.24;54.20
72558;BME280;60583;50.094;8.748;2023-06-19T07:18:10;100139.16;;;25.07;54.44
72558;BME280;60583;50.094;8.748;2023-06-19T07:20:35;100127.44;;;25.20;54.60
72558;BME280;60583;50.094;8.748;2023-06-19T07:23:01;100104.59;;;25.16;54.38
72558;BME280;60583;50.094;8.748;2023-06-19T07:25:26;100094.44;;;25.03;54.83
72558;BME280;60583;50.094;8.748;2023-06-19T07:27:52;100098.63;;;25.28;54.62
72558;BME280;60583;50.094;8.748;2023-06-19T07:30:17;100105.72;;;25.56;54.18
72558;BME280;60583;50.094;8.748;2023-06-19T07:32:43;100106.22;;;25.72;53.82
72558;BME280;60583;50.094;8.748;2023-06-19T07:35:09;100117.34;;;25.89;52.91
72558;BME280;60583;50.094;8.748;2023-06-19T07:37:34;100109.75;;;25.86;53.00
72558;BME280;60583;50.094;8.748;2023-06-19T07:39:59;100115.53;;;25.84;53.27
72558;BME280;60583;50.094;8.748;2023-06-19T07:42:25;100108.03;;;25.76;52.61
72558;BME280;60583;50.094;8.748;2023-06-19T07:44:51;100118.53;;;25.96;53.26
72558;BME280;60583;50.094;8.748;2023-06-19T07:47:17;100102.69;;;25.85;52.68
72558;BME280;60583;50.094;8.748;2023-06-19T07:49:46;100120.06;;;25.89;52.84
72558;BME280;60583;50.094;8.748;2023-06-19T07:52:11;100103.91;;;25.79;52.63
72558;BME280;60583;50.094;8.748;2023-06-19T07:54:51;100130.78;;;25.99;53.29
72558;BME280;60583;50.094;8.748;2023-06-19T07:57:17;100142.22;;;26.01;52.85
72558;BME280;60583;50.094;8.748;2023-06-19T07:59:42;100139.00;;;26.13;52.48
72558;BME280;60583;50.094;8.748;2023-06-19T08:02:07;100131.66;;;26.08;51.67
72558;BME280;60583;50.094;8.748;2023-06-19T08:04:33;100143.34;;;26.14;51.70
72558;BME280;60583;50.094;8.748;2023-06-19T08:07:01;100140.31;;;26.15;51.85
72558;BME280;60583;50.094;8.748;2023-06-19T08:09:26;100127.34;;;26.07;51.35
72558;BME280;60583;50.094;8.748;2023-06-19T08:11:52;100146.16;;;26.09;51.59
72558;BME280;60583;50.094;8.748;2023-06-19T08:14:17;100148.91;;;26.22;51.70
72558;BME280;60583;50.094;8.748;2023-06-19T08:16:42;100135.13;;;26.14;51.85
72558;BME280;60583;50.094;8.748;2023-06-19T08:19:08;100144.53;;;26.21;52.51
72558;BME280;60583;50.094;8.748;2023-06-19T08:21:33;100134.88;;;26.37;52.13
72558;BME280;60583;50.094;8.748;2023-06-19T08:23:59;100152.94;;;26.60;51.71
72558;BME280;60583;50.094;8.748;2023-06-19T08:26:24;100139.31;;;26.33;51.78
72558;BME280;60583;50.094;8.748;2023-06-19T08:28:49;100151.16;;;26.42;51.39
72558;BME280;60583;50.094;8.748;2023-06-19T08:31:15;100152.25;;;26.19;51.64
72558;BME280;60583;50.094;8.748;2023-06-19T08:33:41;100143.09;;;26.37;51.78
72558;BME280;60583;50.094;8.748;2023-06-19T08:36:07;100143.66;;;26.12;52.46
72558;BME280;60583;50.094;8.748;2023-06-19T08:38:32;100154.25;;;26.27;51.96
72558;BME280;60583;50.094;8.748;2023-06-19T08:40:58;100146.06;;;26.14;52.14
72558;BME280;60583;50.094;8.748;2023-06-19T08:43:23;100119.44;;;26.41;50.86
72558;BME280;60583;50.094;8.748;2023-06-19T08:46:06;100136.56;;;26.69;52.02
72558;BME280;60583;50.094;8.748;2023-06-19T08:48:35;100159.66;;;27.21;50.61
72558;BME280;60583;50.094;8.748;2023-06-19T08:51:01;100165.38;;;27.11;49.56
72558;BME280;60583;50.094;8.748;2023-06-19T08:53:27;100168.78;;;26.86;49.86
72558;BME280;60583;50.094;8.748;2023-06-19T08:55:52;100163.00;;;27.18;49.62
72558;BME280;60583;50.094;8.748;2023-06-19T08:58:22;100176.34;;;27.42;49.22
72558;BME280;60583;50.094;8.748;2023-06-19T09:00:49;100181.00;;;27.72;48.81
72558;BME280;60583;50.094;8.748;2023-06-19T09:03:20;100162.91;;;27.32;48.78
72558;BME280;60583;50.094;8.748;2023-06-19T09:05:46;100169.69;;;27.34;49.21
72558;BME280;60583;50.094;8.748;2023-06-19T09:08:15;100168.38;;;27.54;48.33
72558;BME280;60583;50.094;8.748;2023-06-19T09:10:41;100154.69;;;27.32;48.65
72558;BME280;60583;50.094;8.748;2023-06-19T09:13:06;100175.72;;;27.45;48.37
72558;BME280;60583;50.094;8.748;2023-06-19T09:15:35;100170.69;;;27.38;48.78
72558;BME280;60583;50.094;8.748;2023-06-19T09:18:01;100164.84;;;27.31;49.58
72558;BME280;60583;50.094;8.748;2023-06-19T09:20:28;100168.13;;;26.89;50.51
72558;BME280;60583;50.094;8.748;2023-06-19T09:22:58;100160.47;;;26.77;50.71
72558;BME280;60583;50.094;8.748;2023-06-19T09:25:24;100162.38;;;26.99;50.51
72558;BME280;60583;50.094;8.748;2023-06-19T09:27:52;100163.56;;;27.29;50.06
72558;BME280;60583;50.094;8.748;2023-06-19T09:30:18;100153.63;;;27.10;49.85
72558;BME280;60583;50.094;8.748;2023-06-19T09:32:44;100172.75;;;27.63;49.35
72558;BME280;60583;50.094;8.748;2023-06-19T09:35:09;100159.47;;;27.48;49.66
72558;BME280;60583;50.094;8.748;2023-06-19T09:37:34;100174.72;;;27.10;50.49
72558;BME280;60583;50.094;8.748;2023-06-19T09:40:03;100162.34;;;26.90;50.16
72558;BME280;60583;50.094;8.748;2023-06-19T09:42:37;100168.91;;;27.34;49.86
72558;BME280;60583;50.094;8.748;2023-06-19T09:45:05;100165.78;;;27.49;49.80
72558;BME280;60583;50.094;8.748;2023-06-19T09:47:51;100166.88;;;26.95;50.73
72558;BME280;60583;50.094;8.748;2023-06-19T09:50:17;100161.34;;;27.08;50.48
72558;BME280;60583;50.094;8.748;2023-06-19T09:52:44;100163.94;;;27.13;50.21
72558;BME280;60583;50.094;8.748;2023-06-19T09:55:11;100171.78;;;27.29;50.13
72558;BME280;60583;50.094;8.748;2023-06-19T09:57:41;100164.91;;;27.40;50.29
72558;BME280;60583;50.094;8.748;2023-06-19T10:00:09;100153.38;;;27.51;48.52
72558;BME280;60583;50.094;8.748;2023-06-19T10:02:42;100173.09;;;27.70;48.05
72558;BME280;60583;50.094;8.748;2023-06-19T10:05:08;100161.50;;;27.73;47.28
72558;BME280;60583;50.094;8.748;2023-06-19T10:07:37;100159.72;;;27.38;48.91
72558;BME280;60583;50.094;8.748;2023-06-19T10:10:09;100164.22;;;27.65;48.10
72558;BME280;60583;50.094;8.748;2023-06-19T10:12:43;100152.81;;;27.71;48.24
72558;BME280;60583;50.094;8.748;2023-06-19T10:17:36;100148.28;;;27.75;47.38
72558;BME280;60583;50.094;8.748;2023-06-19T10:20:02;100159.34;;;28.01;47.17
72558;BME280;60583;50.094;8.748;2023-06-19T10:22:32;100174.09;;;28.31;47.20
72558;BME280;60583;50.094;8.748;2023-06-19T10:24:57;100159.72;;;28.42;46.14
72558;BME280;60583;50.094;8.748;2023-06-19T10:27:24;100166.78;;;28.01;47.07
72558;BME280;60583;50.094;8.748;2023-06-19T10:29:54;100173.28;;;28.47;45.97
72558;BME280;60583;50.094;8.748;2023-06-19T10:32:20;100156.81;;;28.22;46.59
72558;BME280;60583;50.094;8.748;2023-06-19T10:34:47;100156.94;;;28.08;46.29
72558;BME280;60583;50.094;8.748;2023-06-19T10:37:15;100164.06;;;27.61;47.59
72558;BME280;60583;50.094;8.748;2023-06-19T10:39:42;100169.28;;;27.49;47.92
72558;BME280;60583;50.094;8.748;2023-06-19T10:42:08;100155.88;;;27.39;47.72
72558;BME280;60583;50.094;8.748;2023-06-19T10:44:34;100172.84;;;27.41;48.48
72558;BME280;60583;50.094;8.748;2023-06-19T10:47:01;100163.56;;;27.37;48.74
72558;BME280;60583;50.094;8.748;2023-06-19T10:49:26;100157.19;;;27.19;48.67
72558;BME280;60583;50.094;8.748;2023-06-19T10:51:52;100179.34;;;27.54;48.34
72558;BME280;60583;50.094;8.748;2023-06-19T10:54:24;100162.84;;;27.45;47.97
72558;BME280;60583;50.094;8.748;2023-06-19T10:56:50;100142.69;;;27.41;47.97
72558;BME280;60583;50.094;8.748;2023-06-19T10:59:16;100151.47;;;27.60;48.09
72558;BME280;60583;50.094;8.748;2023-06-19T11:01:44;100169.13;;;27.46;49.36
72558;BME280;60583;50.094;8.748;2023-06-19T11:04:12;100165.97;;;27.30;49.26
72558;BME280;60583;50.094;8.748;2023-06-19T11:06:39;100166.31;;;27.06;49.75
72558;BME280;60583;50.094;8.748;2023-06-19T11:09:06;100139.84;;;26.93;49.89
72558;BME280;60583;50.094;8.748;2023-06-19T11:11:39;100151.22;;;26.87;49.39
72558;BME280;60583;50.094;8.748;2023-06-19T11:14:06;100171.72;;;26.76;49.55
72558;BME280;60583;50.094;8.748;2023-06-19T11:16:33;100171.06;;;26.92;49.68
72558;BME280;60583;50.094;8.748;2023-06-19T11:19:00;100170.88;;;27.11;49.58
72558;BME280;60583;50.094;8.748;2023-06-19T11:21:33;100149.84;;;27.29;49.03
72558;BME280;60583;50.094;8.748;2023-06-19T11:24:11;100162.00;;;27.14;48.52
72558;BME280;60583;50.094;8.748;2023-06-19T11:26:38;100136.50;;;27.05;49.13
72558;BME280;60583;50.094;8.748;2023-06-19T11:31:40;100127.56;;;26.91;49.18
72558;BME280;60583;50.094;8.748;2023-06-19T11:34:06;100137.09;;;27.24;48.22
72558;BME280;60583;50.094;8.748;2023-06-19T11:36:31;100140.44;;;27.43;47.81
72558;BME280;60583;50.094;8.748;2023-06-19T11:38:56;100133.03;;;27.52;47.53
72558;BME280;60583;50.094;8.748;2023-06-19T11:41:28;100144.06;;;27.61;47.28
72558;BME280;60583;50.094;8.748;2023-06-19T11:44:02;100138.13;;;27.76;46.80
72558;BME280;60583;50.094;8.748;2023-06-19T11:46:31;100140.97;;;27.54;47.52
72558;BME280;60583;50.094;8.748;2023-06-19T11:49:13;100137.84;;;27.47;47.78
72558;BME280;60583;50.094;8.748;2023-06-19T11:51:40;100148.53;;;27.48;47.61
72558;BME280;60583;50.094;8.748;2023-06-19T11:54:07;100132.53;;;27.42;47.68
72558;BME280;60583;50.094;8.748;2023-06-19T11:56:34;100125.75;;;27.39;48.07
72558;BME280;60583;50.094;8.748;2023-06-19T11:59:01;100138.09;;;27.59;48.41
72558;BME280;60583;50.094;8.748;2023-06-19T12:01:26;100130.88;;;27.71;47.27
72558;BME280;60583;50.094;8.748;2023-06-19T12:03:51;100123.94;;;27.74;46.89
72558;BME280;60583;50.094;8.748;2023-06-19T12:06:17;100151.78;;;28.07;46.24
72558;BME280;60583;50.094;8.748;2023-06-19T12:08:45;100137.75;;;28.08;46.11
72558;BME280;60583;50.094;8.748;2023-06-19T12:11:10;100123.25;;;28.16;45.56
72558;BME280;60583;50.094;8.748;2023-06-19T12:13:39;100150.19;;;28.23;46.29
72558;BME280;60583;50.094;8.748;2023-06-19T12:16:05;100142.13;;;28.43;45.52
72558;BME280;60583;50.094;8.748;2023-06-19T12:18:30;100132.44;;;28.80;45.18
72558;BME280;60583;50.094;8.748;2023-06-19T12:20:55;100129.16;;;28.95;43.84
72558;BME280;60583;50.094;8.748;2023-06-19T12:23:21;100121.03;;;29.16;43.52
72558;BME280;60583;50.094;8.748;2023-06-19T12:25:46;100147.88;;;29.28;43.07
72558;BME280;60583;50.094;8.748;2023-06-19T12:28:12;100137.06;;;29.05;43.56
72558;BME280;60583;50.094;8.748;2023-06-19T12:30:41;100127.91;;;28.84;43.45
72558;BME280;60583;50.094;8.748;2023-06-19T12:33:07;100126.94;;;28.97;43.55
72558;BME280;60583;50.094;8.748;2023-06-19T12:35:32;100100.63;;;29.34;42.41
72558;BME280;60583;50.094;8.748;2023-06-19T12:37:58;100126.41;;;29.13;42.75
72558;BME280;60583;50.094;8.748;2023-06-19T12:40:23;100125.72;;;29.24;42.43
72558;BME280;60583;50.094;8.748;2023-06-19T12:42:48;100120.28;;;28.98;43.36
72558;BME280;60583;50.094;8.748;2023-06-19T12:45:15;100135.00;;;28.85;44.39
72558;BME280;60583;50.094;8.748;2023-06-19T12:47:41;100139.53;;;28.90;44.16
72558;BME280;60583;50.094;8.748;2023-06-19T12:50:07;100132.44;;;28.80;44.05
72558;BME280;60583;50.094;8.748;2023-06-19T12:52:32;100110.16;;;28.73;43.26
72558;BME280;60583;50.094;8.748;2023-06-19T12:54:58;100127.34;;;29.17;42.43